Site:       
  Group:  
  From:      To:        
   
Sensor Name: Furnace      Latitude:-9.57320000 , Longitude:53.92290000
Please click on the Table Headers to view a Graph of the Observations.
TimeMax. Temp. (°C)Min. Temp. (°C)Mean Temp. (°C)Tot. Rain (mm)Mean Wind (kn)Max Gust (kn)Solar Rad. (J\cm2)Humidity (%)Atmos. Press. (mb)Temp. 5cm (°C)Temp. 10cm (°C)Temp. 20cm (°C)Temp. 30cm (°C)Temp. 50cm (°C)Temp. 100cm (°C)Grass Min. (°C)
17/01/2021 23:00:005.90 5.50 5.70 0.60 6.70 14.30 0.00 96.40 1020.50 5.00 5.10 5.40 5.70 6.00 6.70 -999.00
17/01/2021 22:00:005.70 4.90 5.30 0.00 5.00 9.50 0.00 94.90 1020.90 5.10 5.20 5.40 5.80 6.00 6.70 -999.00
17/01/2021 21:00:006.00 5.60 5.80 0.10 6.70 13.00 0.00 95.20 1021.20 5.20 5.30 5.50 5.80 6.00 6.70 -999.00
17/01/2021 20:00:005.80 5.10 5.50 0.10 6.10 11.50 0.00 92.70 1021.50 5.30 5.40 5.50 5.70 6.00 6.70 -999.00
17/01/2021 19:00:006.20 5.70 6.00 0.20 5.20 12.80 0.00 94.40 1021.70 5.50 5.50 5.50 5.70 6.00 6.70 -999.00
17/01/2021 18:00:006.40 6.00 6.20 0.30 8.50 14.70 0.00 89.40 1021.70 5.60 5.60 5.50 5.70 6.00 6.70 -999.00
17/01/2021 17:00:006.70 6.00 6.30 0.10 8.10 14.70 2.60 90.70 1021.80 5.90 5.70 5.40 5.70 6.00 6.70 -999.00
17/01/2021 16:00:006.90 6.60 6.80 0.00 6.70 15.00 8.30 93.80 1021.80 5.90 5.60 5.30 5.60 6.00 6.70 -999.00
17/01/2021 15:00:007.60 6.90 7.30 0.40 6.80 16.00 15.90 90.10 1022.20 5.80 5.50 5.20 5.60 6.10 6.70 -999.00
17/01/2021 14:00:008.00 7.40 7.70 0.00 10.30 19.00 24.40 86.40 1022.50 5.50 5.20 5.10 5.60 6.10 6.70 -999.00
17/01/2021 13:00:008.10 7.80 7.90 0.00 8.20 17.30 31.20 83.40 1022.90 5.10 4.90 5.00 5.60 6.10 6.70 -999.00
17/01/2021 12:00:007.70 6.90 7.30 0.00 8.20 19.00 28.00 84.20 1023.30 4.60 4.60 5.00 5.60 6.10 6.70 -999.00
17/01/2021 11:00:006.90 5.40 6.10 0.00 4.10 7.30 21.70 88.80 1023.20 4.30 4.40 5.00 5.60 6.10 6.70 -999.00
17/01/2021 10:00:005.70 5.10 5.40 0.00 5.20 8.30 12.60 91.00 1022.90 4.20 4.40 5.10 5.70 6.10 6.70 -999.00
17/01/2021 09:00:006.10 5.70 5.90 0.00 7.80 14.10 0.40 86.70 1022.80 4.20 4.40 5.10 5.70 6.20 6.70 -999.00
17/01/2021 08:00:005.90 5.40 5.60 0.00 8.30 12.80 0.00 84.40 1022.30 4.20 4.50 5.20 5.80 6.20 6.70 -999.00
17/01/2021 07:00:005.60 5.30 5.50 0.00 7.70 12.90 0.00 86.10 1022.00 4.20 4.60 5.30 5.80 6.20 6.70 -999.00
17/01/2021 06:00:005.60 4.90 5.20 0.10 7.20 14.10 0.00 85.20 1021.60 4.20 4.60 5.30 5.90 6.20 6.60 -999.00
17/01/2021 05:00:005.80 4.30 5.00 0.00 7.00 14.50 0.00 87.40 1021.50 4.50 4.80 5.40 5.90 6.20 6.60 -999.00
17/01/2021 04:00:006.10 5.40 5.70 0.00 10.10 22.30 0.00 83.60 1021.20 4.60 4.90 5.50 6.00 6.20 6.60 -999.00
17/01/2021 03:00:006.50 5.40 6.00 0.20 9.50 19.80 0.00 84.80 1020.80 4.60 4.90 5.50 6.00 6.20 6.60 -999.00
17/01/2021 02:00:007.40 5.70 6.60 1.10 13.20 27.40 0.00 73.30 1020.20 4.60 5.00 5.60 6.10 6.20 6.60 -999.00
17/01/2021 01:00:007.10 6.60 6.80 0.00 17.40 27.70 0.00 70.70 1019.50 4.70 5.10 5.70 6.10 6.20 6.60 -999.00
17/01/2021 00:00:006.90 6.20 6.50 0.00 20.50 31.70 0.00 71.40 1019.20 4.90 5.30 5.80 6.20 6.20 6.60 4.40
16/01/2021 23:00:006.70 5.70 6.20 0.40 20.20 34.30 0.00 75.80 1018.90 5.10 5.40 5.90 6.20 6.20 6.60 -999.00
16/01/2021 22:00:006.80 6.00 6.40 0.00 22.40 35.60 0.00 75.00 1018.30 5.30 5.60 6.00 6.20 6.20 6.60 -999.00